createdAt,value
2023-04-21T00:01:59.304Z,21.42
2023-04-21T00:04:26.347Z,22.98
2023-04-21T00:06:53.486Z,25.80
2023-04-21T00:09:20.746Z,22.65
2023-04-21T00:11:47.598Z,21.13
2023-04-21T00:14:14.268Z,22.85
2023-04-21T00:16:41.101Z,23.65
2023-04-21T00:19:08.490Z,25.17
2023-04-21T00:21:35.353Z,20.23
2023-04-21T00:24:02.058Z,20.38
2023-04-21T00:26:28.706Z,18.40
2023-04-21T00:29:15.294Z,22.75
2023-04-21T00:31:41.989Z,24.45
2023-04-21T00:34:08.629Z,20.20
2023-04-21T00:36:35.507Z,26.23
2023-04-21T00:39:03.900Z,22.25
2023-04-21T00:41:31.024Z,27.40
2023-04-21T00:43:57.668Z,20.65
2023-04-21T00:46:24.328Z,27.95
2023-04-21T00:49:10.146Z,22.50
2023-04-21T00:51:36.791Z,22.05
2023-04-21T00:54:03.415Z,26.77
2023-04-21T00:56:30.212Z,25.08
2023-04-21T00:58:57.130Z,25.00
2023-04-21T01:01:24.333Z,24.58
2023-04-21T01:03:51.228Z,23.35
2023-04-21T01:06:18.051Z,27.23
2023-04-21T01:08:45.802Z,27.60
2023-04-21T01:11:15.684Z,24.25
2023-04-21T01:13:42.322Z,28.55
2023-04-21T01:16:09.116Z,24.70
2023-04-21T01:18:37.408Z,22.35
2023-04-21T01:21:04.330Z,21.75
2023-04-21T01:23:30.916Z,31.60
2023-04-21T01:25:57.531Z,23.35
2023-04-21T01:28:25.418Z,23.58
2023-04-21T01:30:52.139Z,26.88
2023-04-21T01:33:21.852Z,24.85
2023-04-21T01:35:48.521Z,23.67
2023-04-21T01:38:21.483Z,21.17
2023-04-21T01:40:48.227Z,21.00
2023-04-21T01:43:14.954Z,29.45
2023-04-21T01:45:41.947Z,24.83
2023-04-21T01:48:27.426Z,28.25
2023-04-21T01:50:54.068Z,25.27
2023-04-21T01:53:20.750Z,23.73
2023-04-21T01:55:47.370Z,21.10
2023-04-21T01:58:32.989Z,27.20
2023-04-21T02:00:59.808Z,36.00
2023-04-21T02:03:26.921Z,27.08
2023-04-21T02:05:53.621Z,26.15
2023-04-21T02:08:20.414Z,29.48
2023-04-21T02:10:47.150Z,25.58
2023-04-21T02:13:13.751Z,23.48
2023-04-21T02:15:40.472Z,24.88
2023-04-21T02:18:08.428Z,26.70
2023-04-21T02:20:35.323Z,26.77
2023-04-21T02:23:02.024Z,22.65
2023-04-21T02:25:29.836Z,27.35
2023-04-21T02:27:57.562Z,29.65
2023-04-21T02:30:26.883Z,27.35
2023-04-21T02:32:53.919Z,23.73
2023-04-21T02:35:20.789Z,25.55
2023-04-21T02:38:06.374Z,28.63
2023-04-21T02:40:33.026Z,22.67
2023-04-21T02:43:00.077Z,33.78
2023-04-21T02:45:26.707Z,21.13
2023-04-21T02:47:53.580Z,27.95
2023-04-21T02:50:20.207Z,24.05
2023-04-21T02:52:47.555Z,19.92
2023-04-21T02:55:14.253Z,24.75
2023-04-21T02:57:42.759Z,26.38
2023-04-21T03:00:11.896Z,21.55
2023-04-21T03:02:38.977Z,24.13
2023-04-21T03:05:06.558Z,25.73
2023-04-21T03:07:51.853Z,29.38
2023-04-21T03:10:19.502Z,24.50
2023-04-21T03:12:47.030Z,31.42
2023-04-21T03:15:14.362Z,31.83
2023-04-21T03:17:44.246Z,34.90
2023-04-21T03:20:11.670Z,24.83
2023-04-21T03:22:38.301Z,25.45
2023-04-21T03:25:05.083Z,29.65
2023-04-21T03:27:34.050Z,27.95
2023-04-21T03:30:03.754Z,23.65
2023-04-21T03:32:30.790Z,22.73
2023-04-21T03:34:57.452Z,23.95
2023-04-21T03:37:44.686Z,30.80
2023-04-21T03:40:11.456Z,27.48
2023-04-21T03:42:38.083Z,26.77
2023-04-21T03:45:04.853Z,29.92
2023-04-21T03:47:35.058Z,18.20
2023-04-21T03:50:01.720Z,19.10
2023-04-21T03:52:28.294Z,27.15
2023-04-21T03:54:54.911Z,33.67
2023-04-21T03:57:21.720Z,27.55
2023-04-21T03:59:48.392Z,30.52
2023-04-21T04:02:15.013Z,26.73
2023-04-21T04:04:41.832Z,31.20
2023-04-21T04:09:56.018Z,32.88
2023-04-21T04:12:22.581Z,29.13
2023-04-21T04:14:49.221Z,26.73
2023-04-21T04:17:16.047Z,29.60
2023-04-21T04:19:42.857Z,28.13
2023-04-21T04:22:09.612Z,26.58
2023-04-21T04:24:36.218Z,25.25
2023-04-21T04:27:04.074Z,29.25
2023-04-21T04:29:30.758Z,23.45
2023-04-21T04:31:58.114Z,30.55
2023-04-21T04:34:24.838Z,26.23
2023-04-21T04:36:51.465Z,23.73
2023-04-21T04:39:18.509Z,28.17
2023-04-21T04:41:47.028Z,22.55
2023-04-21T04:44:15.867Z,31.40
2023-04-21T04:46:42.889Z,27.98
2023-04-21T04:49:30.225Z,31.85
2023-04-21T04:51:56.880Z,23.48
2023-04-21T04:54:24.792Z,35.88
2023-04-21T04:56:51.415Z,30.63
2023-04-21T04:59:18.039Z,29.33
2023-04-21T05:01:44.773Z,23.42
2023-04-21T05:04:11.587Z,26.92
2023-04-21T05:06:38.268Z,29.85
2023-04-21T05:09:05.000Z,37.00
2023-04-21T05:11:31.684Z,33.30
2023-04-21T05:13:58.290Z,25.10
2023-04-21T05:16:24.966Z,24.42
2023-04-21T05:18:54.007Z,40.17
2023-04-21T05:21:20.724Z,27.92
2023-04-21T05:23:47.343Z,25.42
2023-04-21T05:26:13.977Z,31.75
2023-04-21T05:28:42.802Z,29.40
2023-04-21T05:31:09.432Z,28.25
2023-04-21T05:33:36.003Z,25.08
2023-04-21T05:36:02.605Z,38.30
2023-04-21T05:38:30.490Z,27.15
2023-04-21T05:40:57.197Z,26.38
2023-04-21T05:43:23.813Z,28.40
2023-04-21T05:45:50.461Z,30.00
2023-04-21T05:48:36.815Z,30.58
2023-04-21T05:51:03.423Z,32.55
2023-04-21T05:53:30.163Z,29.27
2023-04-21T05:55:56.778Z,23.95
2023-04-21T05:58:24.567Z,37.28
2023-04-21T06:00:51.309Z,25.85
2023-04-21T06:03:18.249Z,27.33
2023-04-21T06:05:45.097Z,25.55
2023-04-21T06:08:12.833Z,26.77
2023-04-21T06:10:39.447Z,21.15
2023-04-21T06:13:06.158Z,21.55
2023-04-21T06:15:32.798Z,19.20
2023-04-21T06:18:00.721Z,21.70
2023-04-21T06:20:28.730Z,28.45
2023-04-21T06:22:58.695Z,22.42
2023-04-21T06:25:25.405Z,30.35
2023-04-21T06:27:52.449Z,31.60
2023-04-21T06:30:19.166Z,25.05
2023-04-21T06:32:49.050Z,28.58
2023-04-21T06:35:15.841Z,24.63
2023-04-21T06:37:42.670Z,24.83
2023-04-21T06:40:09.324Z,29.33
2023-04-21T06:42:36.147Z,25.33
2023-04-21T06:45:03.031Z,28.17
2023-04-21T06:47:29.881Z,24.83
2023-04-21T06:49:56.813Z,27.05
2023-04-21T06:52:23.423Z,22.27
2023-04-21T06:54:53.055Z,22.00
2023-04-21T06:57:19.973Z,18.63
2023-04-21T06:59:49.001Z,26.20
2023-04-21T07:02:15.921Z,22.13
2023-04-21T07:04:42.682Z,25.58
2023-04-21T07:07:10.611Z,22.13
2023-04-21T07:09:37.266Z,22.95
2023-04-21T07:12:03.977Z,19.58
2023-04-21T07:14:30.837Z,22.88
2023-04-21T07:16:57.565Z,17.00
2023-04-21T07:19:24.230Z,19.05
2023-04-21T07:21:50.952Z,21.20
2023-04-21T07:24:17.551Z,17.13
2023-04-21T07:26:44.183Z,21.58
2023-04-21T07:29:12.094Z,16.98
2023-04-21T07:31:38.947Z,15.32
2023-04-21T07:34:05.632Z,20.00
2023-04-21T07:36:32.260Z,17.40
2023-04-21T07:38:59.393Z,16.48
2023-04-21T07:41:26.606Z,20.83
2023-04-21T07:43:53.885Z,19.20
2023-04-21T07:46:21.584Z,19.27
2023-04-21T07:48:49.570Z,19.30
2023-04-21T07:51:17.948Z,18.30
2023-04-21T07:53:44.658Z,18.35
2023-04-21T07:56:13.002Z,19.77
2023-04-21T07:58:41.001Z,17.45
2023-04-21T08:01:07.671Z,15.80
2023-04-21T08:03:34.422Z,17.35
2023-04-21T08:06:01.418Z,18.13
2023-04-21T08:08:29.638Z,21.13
2023-04-21T08:10:58.215Z,20.10
2023-04-21T08:13:25.435Z,20.00
2023-04-21T08:15:52.181Z,15.45
2023-04-21T08:18:22.209Z,19.98
2023-04-21T08:20:49.373Z,17.60
2023-04-21T08:23:16.055Z,16.95
2023-04-21T08:25:42.811Z,18.92
2023-04-21T08:28:10.744Z,17.52
2023-04-21T08:30:37.353Z,21.08
2023-04-21T08:33:04.080Z,25.70
2023-04-21T08:35:30.845Z,20.75
2023-04-21T08:37:57.755Z,15.20
2023-04-21T08:40:24.399Z,19.02
2023-04-21T08:43:00.170Z,19.65
2023-04-21T08:45:54.386Z,17.70
2023-04-21T08:48:22.149Z,18.25
2023-04-21T08:50:48.767Z,14.73
2023-04-21T08:53:15.365Z,17.73
2023-04-21T08:55:41.990Z,17.67
2023-04-21T09:01:12.541Z,17.73
2023-04-21T09:03:39.525Z,15.07
2023-04-21T09:06:06.674Z,21.40
2023-04-21T09:08:34.005Z,16.30
2023-04-21T09:11:01.396Z,17.75
2023-04-21T09:13:28.154Z,17.15
2023-04-21T09:15:54.762Z,16.48
2023-04-21T09:18:22.902Z,15.15
2023-04-21T09:20:50.063Z,17.67
2023-04-21T09:23:16.680Z,15.98
2023-04-21T09:28:54.145Z,14.60
2023-04-21T09:31:24.200Z,13.65
2023-04-21T09:36:21.203Z,17.60
2023-04-21T09:41:36.197Z,11.85
2023-04-21T09:44:04.682Z,11.60
2023-04-21T09:46:31.750Z,12.95
2023-04-21T09:48:59.607Z,14.38
2023-04-21T09:51:42.702Z,11.95
2023-04-21T09:54:22.068Z,12.25
2023-04-21T09:56:55.952Z,13.40
2023-04-21T09:59:23.723Z,11.10
2023-04-21T10:01:50.568Z,11.65
2023-04-21T10:04:17.726Z,11.93
2023-04-21T10:06:44.527Z,11.32
2023-04-21T10:09:30.204Z,11.85
2023-04-21T10:11:57.826Z,11.30
2023-04-21T10:14:24.414Z,10.55
2023-04-21T10:16:51.315Z,9.98
2023-04-21T10:19:19.402Z,9.52
2023-04-21T10:21:51.998Z,10.70
2023-04-21T10:24:19.029Z,12.25
2023-04-21T10:26:45.857Z,11.48
2023-04-21T10:29:12.493Z,11.05
2023-04-21T10:31:39.340Z,13.27
2023-04-21T10:34:06.549Z,8.50
2023-04-21T10:36:34.930Z,12.23
2023-04-21T10:39:06.137Z,12.68
2023-04-21T10:41:32.891Z,11.90
2023-04-21T10:43:59.887Z,11.98
2023-04-21T10:46:26.787Z,10.68
2023-04-21T10:48:54.650Z,9.38
2023-04-21T10:51:21.256Z,11.30
2023-04-21T10:53:48.012Z,10.68
2023-04-21T10:56:14.717Z,12.30
2023-04-21T10:58:42.605Z,11.38
2023-04-21T11:01:09.218Z,8.20
2023-04-21T11:03:36.761Z,7.82
2023-04-21T11:06:05.838Z,9.30
2023-04-21T11:08:32.787Z,9.43
2023-04-21T11:10:59.451Z,9.65
2023-04-21T11:13:26.325Z,9.55
2023-04-21T11:15:52.966Z,10.70
2023-04-21T11:18:19.823Z,10.85
2023-04-21T11:20:46.819Z,11.20
2023-04-21T11:23:13.482Z,12.60
2023-04-21T11:25:40.254Z,10.57
2023-04-21T11:28:06.873Z,11.70
2023-04-21T11:30:34.109Z,13.65
2023-04-21T11:33:01.066Z,12.93
2023-04-21T11:35:28.010Z,14.05
2023-04-21T11:37:54.614Z,20.13
2023-04-21T11:40:21.303Z,17.52
2023-04-21T11:42:48.027Z,17.77
2023-04-21T11:45:14.787Z,17.85
2023-04-21T11:47:41.424Z,17.98
2023-04-21T11:50:09.878Z,17.30
2023-04-21T11:52:37.600Z,15.15
2023-04-21T11:55:04.389Z,16.90
2023-04-21T11:57:31.352Z,17.77
2023-04-21T11:59:57.949Z,15.18
2023-04-21T12:02:24.867Z,14.57
2023-04-21T12:04:51.724Z,13.38
2023-04-21T12:07:18.491Z,14.30
2023-04-21T12:09:45.172Z,11.80
2023-04-21T12:12:11.771Z,12.18
2023-04-21T12:14:38.410Z,13.73
2023-04-21T12:17:06.366Z,13.90
2023-04-21T12:19:33.054Z,14.30
2023-04-21T12:21:59.679Z,14.25
2023-04-21T12:24:26.327Z,15.15
2023-04-21T12:26:52.963Z,15.18
2023-04-21T12:29:19.791Z,16.08
2023-04-21T12:31:46.421Z,18.10
2023-04-21T12:34:13.197Z,16.90
2023-04-21T12:36:39.963Z,17.30
2023-04-21T12:39:07.822Z,16.40
2023-04-21T12:41:34.961Z,16.73
2023-04-21T12:44:01.745Z,16.95
2023-04-21T12:46:28.530Z,17.63
2023-04-21T12:49:14.499Z,15.75
2023-04-21T12:51:41.357Z,14.75
2023-04-21T12:54:08.014Z,14.88
2023-04-21T12:56:34.686Z,15.13
2023-04-21T12:59:01.682Z,15.85
2023-04-21T13:01:28.433Z,13.32
2023-04-21T13:03:55.247Z,12.32
2023-04-21T13:06:22.042Z,11.70
2023-04-21T13:08:49.089Z,12.02
2023-04-21T13:11:15.680Z,10.55
2023-04-21T13:13:42.351Z,11.73
2023-04-21T13:16:09.061Z,12.88
2023-04-21T13:18:38.130Z,13.52
2023-04-21T13:21:05.004Z,12.68
2023-04-21T13:23:31.664Z,11.05
2023-04-21T13:25:58.407Z,11.02
2023-04-21T13:28:44.052Z,10.48
2023-04-21T13:31:10.813Z,10.90
2023-04-21T13:33:37.511Z,12.18
2023-04-21T13:36:04.270Z,10.68
2023-04-21T13:38:50.795Z,11.10
2023-04-21T13:41:17.674Z,11.50
2023-04-21T13:43:44.358Z,9.90
2023-04-21T13:46:11.118Z,11.05
2023-04-21T13:48:38.871Z,10.48
2023-04-21T13:51:05.627Z,10.90
2023-04-21T13:53:32.368Z,10.52
2023-04-21T13:55:59.458Z,11.20
2023-04-21T13:58:26.299Z,12.18
2023-04-21T14:00:53.036Z,11.50
2023-04-21T14:03:19.848Z,12.68
2023-04-21T14:05:46.777Z,13.45
2023-04-21T14:08:15.696Z,13.43
2023-04-21T14:10:42.410Z,13.45
2023-04-21T14:13:12.831Z,13.55
2023-04-21T14:15:44.370Z,12.27
2023-04-21T14:18:13.401Z,14.23
2023-04-21T14:20:40.152Z,13.60
2023-04-21T14:23:06.884Z,14.57
2023-04-21T14:25:33.613Z,13.48
2023-04-21T14:28:03.434Z,14.20
2023-04-21T14:30:30.240Z,15.00
2023-04-21T14:32:56.928Z,14.60
2023-04-21T14:35:23.578Z,17.30
2023-04-21T14:37:54.743Z,17.10
2023-04-21T14:40:22.085Z,16.05
2023-04-21T14:42:48.675Z,15.05
2023-04-21T14:45:15.680Z,13.77
2023-04-21T14:47:43.806Z,15.40
2023-04-21T14:50:10.502Z,14.95
2023-04-21T14:52:37.098Z,14.38
2023-04-21T14:55:04.224Z,18.65
2023-04-21T14:57:32.966Z,15.50
2023-04-21T15:00:00.356Z,17.92
2023-04-21T15:02:27.308Z,15.43
2023-04-21T15:04:54.214Z,15.85
2023-04-21T15:07:39.700Z,17.52
2023-04-21T15:10:06.432Z,11.52
2023-04-21T15:12:35.212Z,14.73
2023-04-21T15:15:03.985Z,17.90
2023-04-21T15:17:50.420Z,20.95
2023-04-21T15:20:17.114Z,22.17
2023-04-21T15:22:43.769Z,25.75
2023-04-21T15:25:10.605Z,26.52
2023-04-21T15:27:37.457Z,26.60
2023-04-21T15:30:04.492Z,27.50
2023-04-21T15:32:31.201Z,27.25
2023-04-21T15:34:57.912Z,31.27
2023-04-21T15:37:26.036Z,26.85
2023-04-21T15:39:52.787Z,29.90
2023-04-21T15:42:19.468Z,26.17
2023-04-21T15:44:47.023Z,26.55
2023-04-21T15:47:34.975Z,27.50
2023-04-21T15:50:01.733Z,26.95
2023-04-21T15:52:28.530Z,26.05
2023-04-21T15:54:55.246Z,23.75
2023-04-21T15:57:43.705Z,26.15
2023-04-21T16:00:10.965Z,25.63
2023-04-21T16:02:37.837Z,28.73
2023-04-21T16:05:04.902Z,26.67
2023-04-21T16:07:31.880Z,26.02
2023-04-21T16:09:58.600Z,27.50
2023-04-21T16:12:25.435Z,26.50
2023-04-21T16:14:57.531Z,26.33
2023-04-21T16:17:28.601Z,24.70
2023-04-21T16:19:55.504Z,24.13
2023-04-21T16:22:22.201Z,20.33
2023-04-21T16:24:49.825Z,20.73
2023-04-21T16:27:17.653Z,27.10
2023-04-21T16:29:44.344Z,26.27
2023-04-21T16:32:11.168Z,26.67
2023-04-21T16:34:38.093Z,28.83
2023-04-21T16:37:04.919Z,32.75
2023-04-21T16:39:31.674Z,28.77
2023-04-21T16:41:58.493Z,31.13
2023-04-21T16:44:25.107Z,33.80
2023-04-21T16:46:51.902Z,35.58
2023-04-21T16:49:18.749Z,32.38
2023-04-21T16:51:45.538Z,36.83
2023-04-21T16:54:12.225Z,33.70
2023-04-21T16:56:38.896Z,33.72
2023-04-21T16:59:06.783Z,36.72
2023-04-21T17:01:33.508Z,40.50
2023-04-21T17:04:00.648Z,33.53
2023-04-21T17:06:27.454Z,37.95
2023-04-21T17:08:59.747Z,34.83
2023-04-21T17:11:27.226Z,39.83
2023-04-21T17:13:53.915Z,38.97
2023-04-21T17:16:21.144Z,36.05
2023-04-21T17:19:06.603Z,50.08
2023-04-21T17:21:33.417Z,39.00
2023-04-21T17:24:00.690Z,38.40
2023-04-21T17:26:27.598Z,41.70
2023-04-21T17:28:55.645Z,45.75
2023-04-21T17:31:22.483Z,41.03
2023-04-21T17:33:49.188Z,44.35
2023-04-21T17:36:16.946Z,43.90
2023-04-21T17:39:03.190Z,42.85
2023-04-21T17:41:29.814Z,40.17
2023-04-21T17:43:56.425Z,38.97
2023-04-21T17:46:25.100Z,38.28
2023-04-21T17:48:53.383Z,38.58
2023-04-21T17:51:20.047Z,37.05
2023-04-21T17:53:46.878Z,39.30
2023-04-21T17:56:16.296Z,44.78
2023-04-21T17:58:44.116Z,40.63
2023-04-21T18:01:10.868Z,39.92
2023-04-21T18:03:41.133Z,38.85
2023-04-21T18:06:09.888Z,40.55
2023-04-21T18:08:37.114Z,41.75
2023-04-21T18:11:03.757Z,39.97
2023-04-21T18:13:30.443Z,40.75
2023-04-21T18:15:57.850Z,38.35
2023-04-21T18:18:44.574Z,45.83
2023-04-21T18:21:11.541Z,39.30
2023-04-21T18:23:38.133Z,40.38
2023-04-21T18:26:05.231Z,37.25
2023-04-21T18:28:33.005Z,37.08
2023-04-21T18:30:59.816Z,40.92
2023-04-21T18:33:26.519Z,41.35
2023-04-21T18:35:53.164Z,38.47
2023-04-21T18:38:39.012Z,37.33
2023-04-21T18:41:05.962Z,39.97
2023-04-21T18:43:32.665Z,41.53
2023-04-21T18:45:59.446Z,35.58
2023-04-21T18:48:28.336Z,34.25
2023-04-21T18:50:55.020Z,42.50
2023-04-21T18:53:21.687Z,39.20
2023-04-21T18:55:48.617Z,39.50
2023-04-21T18:58:16.268Z,42.05
2023-04-21T19:00:42.953Z,36.58
2023-04-21T19:03:09.959Z,37.28
2023-04-21T19:05:37.018Z,41.45
2023-04-21T19:08:03.986Z,38.47
2023-04-21T19:10:30.934Z,38.58
2023-04-21T19:12:57.693Z,37.35
2023-04-21T19:15:24.351Z,41.05
2023-04-21T19:17:51.428Z,39.53
2023-04-21T19:20:18.051Z,35.75
2023-04-21T19:22:44.799Z,40.65
2023-04-21T19:25:11.983Z,44.78
2023-04-21T19:27:39.832Z,43.83
2023-04-21T19:30:06.645Z,43.50
2023-04-21T19:32:33.351Z,41.58
2023-04-21T19:35:00.029Z,38.55
2023-04-21T19:37:28.303Z,42.60
2023-04-21T19:39:55.308Z,43.25
2023-04-21T19:42:22.184Z,39.65
2023-04-21T19:44:48.824Z,36.60
2023-04-21T19:47:20.853Z,43.63
2023-04-21T19:49:47.547Z,36.15
2023-04-21T19:52:14.204Z,34.72
2023-04-21T19:54:41.251Z,40.20
2023-04-21T19:57:09.013Z,38.80
2023-04-21T19:59:35.868Z,36.10
2023-04-21T20:02:02.735Z,39.30
2023-04-21T20:04:29.516Z,38.72
2023-04-21T20:06:56.252Z,35.70
2023-04-21T20:09:22.934Z,39.47
2023-04-21T20:11:49.789Z,35.00
2023-04-21T20:14:18.096Z,38.13
2023-04-21T20:16:46.359Z,34.17
2023-04-21T20:19:15.061Z,34.10
2023-04-21T20:21:42.388Z,37.05
2023-04-21T20:24:10.350Z,39.25
2023-04-21T20:26:37.161Z,39.50
2023-04-21T20:29:04.062Z,35.55
2023-04-21T20:31:30.714Z,39.30
2023-04-21T20:33:57.360Z,32.15
2023-04-21T20:36:24.093Z,32.80
2023-04-21T20:38:51.842Z,39.55
2023-04-21T20:41:18.598Z,30.80
2023-04-21T20:43:45.526Z,33.38
2023-04-21T20:46:12.441Z,34.38
2023-04-21T20:51:27.706Z,34.05
2023-04-21T20:53:54.331Z,32.65
2023-04-21T20:56:21.586Z,36.35
2023-04-21T20:58:49.304Z,37.33
2023-04-21T21:01:15.954Z,35.75
2023-04-21T21:03:42.801Z,35.88
2023-04-21T21:06:09.774Z,30.23
2023-04-21T21:08:38.115Z,37.88
2023-04-21T21:11:05.067Z,35.30
2023-04-21T21:13:31.649Z,38.05
2023-04-21T21:15:58.547Z,30.75
2023-04-21T21:18:43.947Z,31.17
2023-04-21T21:21:10.646Z,36.10
2023-04-21T21:23:37.303Z,29.73
2023-04-21T21:26:03.943Z,38.08
2023-04-21T21:28:30.973Z,37.10
2023-04-21T21:31:00.640Z,40.03
2023-04-21T21:33:27.302Z,35.38
2023-04-21T21:35:53.940Z,34.67
2023-04-21T21:38:22.736Z,36.58
2023-04-21T21:40:49.380Z,38.90
2023-04-21T21:43:16.500Z,46.25
2023-04-21T21:45:43.472Z,38.33
2023-04-21T21:48:29.713Z,35.15
2023-04-21T21:50:56.339Z,33.60
2023-04-21T21:53:22.917Z,34.95
2023-04-21T21:55:49.562Z,33.65
2023-04-21T21:58:16.383Z,35.53
2023-04-21T22:00:43.003Z,36.50
2023-04-21T22:03:09.811Z,42.75
2023-04-21T22:05:36.551Z,35.65
2023-04-21T22:10:50.314Z,41.60
2023-04-21T22:13:16.951Z,37.15
2023-04-21T22:15:43.672Z,34.00
2023-04-21T22:18:12.499Z,42.03
2023-04-21T22:20:39.133Z,34.83
2023-04-21T22:23:05.749Z,35.28
2023-04-21T22:25:32.459Z,37.22
2023-04-21T22:28:19.164Z,34.92
2023-04-21T22:30:45.805Z,34.17
2023-04-21T22:33:12.460Z,42.90
2023-04-21T22:35:39.100Z,32.92
2023-04-21T22:38:06.931Z,35.58
2023-04-21T22:40:33.546Z,35.78
2023-04-21T22:43:00.160Z,34.80
2023-04-21T22:45:26.766Z,35.17
2023-04-21T22:47:53.541Z,35.20
2023-04-21T22:50:20.433Z,31.45
2023-04-21T22:52:47.066Z,37.88
2023-04-21T22:55:13.679Z,35.92
2023-04-21T22:57:59.243Z,38.15
2023-04-21T23:00:26.066Z,44.53
2023-04-21T23:02:52.950Z,40.70
2023-04-21T23:05:19.688Z,37.05
2023-04-21T23:07:47.690Z,34.53
2023-04-21T23:10:14.357Z,37.80
2023-04-21T23:12:41.047Z,33.92
2023-04-21T23:15:07.728Z,35.33
2023-04-21T23:17:34.709Z,35.70
2023-04-21T23:20:05.068Z,38.60
2023-04-21T23:22:31.671Z,34.63
2023-04-21T23:24:58.556Z,32.83
2023-04-21T23:27:45.268Z,28.48
2023-04-21T23:30:12.005Z,38.28
2023-04-21T23:32:38.636Z,31.42
2023-04-21T23:35:05.313Z,28.90
2023-04-21T23:37:51.992Z,33.85
2023-04-21T23:40:18.643Z,36.38
2023-04-21T23:42:47.265Z,34.28
2023-04-21T23:45:14.390Z,37.08
2023-04-21T23:48:00.337Z,34.78
2023-04-21T23:50:27.030Z,30.73
2023-04-21T23:52:53.646Z,35.63
2023-04-21T23:55:20.288Z,30.27
2023-04-21T23:57:50.843Z,26.52
